Time;durP1;ratioP1;P1;durP2;ratioP2;P2;SDS_P1;SDS_P2;PMS_P1;PMS_P2;Temp;Humidity;BMP_temperature;BMP_pressure;BME280_temperature;BME280_humidity;BME280_pressure;Samples;Min_cycle;Max_cycle;Signal;HPM_P1;HPM_P2
2021/06/10 00:01:41;;;;;;;0.10;0.10;;;17.40;71.80;;;;;;5027004;28;20051;-90
2021/06/10 00:04:07;;;;;;;0.37;0.37;;;17.30;72.90;;;;;;5038812;28;20111;-90
2021/06/10 00:06:33;;;;;;;0.10;0.10;;;17.30;72.60;;;;;;5046663;28;20642;-91
2021/06/10 00:08:59;;;;;;;0.10;0.10;;;17.30;87.10;;;;;;5048253;28;20036;-90
2021/06/10 00:11:25;;;;;;;0.23;0.20;;;17.20;74.60;;;;;;5026716;28;20113;-90
2021/06/10 00:13:51;;;;;;;0.10;0.10;;;17.10;73.80;;;;;;5042063;28;20483;-90
2021/06/10 00:16:17;;;;;;;0.60;0.47;;;17.20;74.40;;;;;;5026470;28;20055;-91
2021/06/10 00:18:46;;;;;;;0.10;0.10;;;17.20;74.60;;;;;;5036706;28;20487;-90
2021/06/10 00:21:12;;;;;;;0.60;0.45;;;17.30;75.40;;;;;;5048350;28;20033;-91
2021/06/10 00:23:37;;;;;;;0.30;0.30;;;17.30;74.80;;;;;;5031165;28;20026;-91
2021/06/10 00:26:03;;;;;;;0.20;0.20;;;17.10;75.10;;;;;;5045037;28;20467;-91
2021/06/10 00:28:29;;;;;;;0.23;0.10;;;17.10;76.70;;;;;;5040928;28;20113;-90
2021/06/10 00:30:55;;;;;;;0.20;0.20;;;17.00;76.70;;;;;;5031436;28;20037;-90
2021/06/10 00:33:20;;;;;;;0.20;0.20;;;17.00;76.40;;;;;;5027490;28;20034;-90
2021/06/10 00:35:46;;;;;;;0.40;0.40;;;16.90;77.40;;;;;;5024048;28;20036;-90
2021/06/10 00:38:12;;;;;;;0.93;0.60;;;17.00;77.40;;;;;;5031278;28;20026;-90
2021/06/10 00:40:38;;;;;;;0.20;0.20;;;16.70;83.80;;;;;;5047991;28;20125;-90
2021/06/10 00:43:04;;;;;;;0.33;0.33;;;16.80;82.20;;;;;;5032510;28;20478;-90
2021/06/10 00:45:30;;;;;;;0.83;0.20;;;16.70;78.70;;;;;;5031232;28;20064;-90
2021/06/10 00:47:57;;;;;;;0.17;0.17;;;16.60;79.70;;;;;;5027933;28;20284;-91
2021/06/10 00:50:31;;;;;;;0.10;0.10;;;16.60;80.40;;;;;;5013498;28;20022;-90
2021/06/10 00:52:57;;;;;;;0.10;0.10;;;16.50;87.30;;;;;;5011865;28;20121;-90
2021/06/10 00:55:23;;;;;;;0.40;0.37;;;16.50;80.90;;;;;;5031345;28;20120;-90
2021/06/10 00:57:50;;;;;;;0.43;0.30;;;16.40;81.60;;;;;;5027180;28;20029;-89
2021/06/10 01:00:16;;;;;;;0.05;0.05;;;16.20;82.40;;;;;;5026975;28;20038;-89
2021/06/10 01:02:42;;;;;;;0.15;0.15;;;16.10;83.20;;;;;;5027864;28;20092;-90
2021/06/10 01:05:09;;;;;;;0.63;0.53;;;16.00;84.00;;;;;;5028462;28;20026;-90
2021/06/10 01:07:41;;;;;;;1.73;0.43;;;16.10;84.20;;;;;;5012246;28;20057;-89
2021/06/10 01:10:38;;;;;;;0.10;0.10;;;16.10;84.60;;;;;;5015221;28;20025;-89
2021/06/10 01:13:22;;;;;;;0.73;0.40;;;16.10;84.60;;;;;;5035933;28;20844;-89
2021/06/10 01:15:53;;;;;;;0.10;0.10;;;16.20;85.10;;;;;;5044088;28;20406;-89
2021/06/10 01:18:20;;;;;;;0.50;0.45;;;16.00;86.20;;;;;;5043226;28;20072;-90
2021/06/10 01:20:47;;;;;;;0.43;0.43;;;16.00;87.60;;;;;;5040940;28;20087;-89
2021/06/10 01:23:30;;;;;;;0.10;0.10;;;15.90;88.10;;;;;;5034279;28;20049;-90
2021/06/10 01:26:15;;;;;;;0.30;0.30;;;15.90;88.10;;;;;;5042281;28;20047;-90
2021/06/10 01:28:44;;;;;;;0.83;0.60;;;16.10;88.70;;;;;;5043990;28;20033;-90
2021/06/10 01:31:14;;;;;;;1.27;1.08;;;16.00;88.80;;;;;;5029315;28;20064;-90
2021/06/10 01:33:47;;;;;;;0.93;0.32;;;15.90;89.10;;;;;;5029355;28;20745;-90
2021/06/10 01:36:22;;;;;;;0.45;0.35;;;15.90;89.50;;;;;;5045872;28;20807;-91
2021/06/10 01:38:50;;;;;;;0.25;0.25;;;15.80;90.40;;;;;;5041727;28;20033;-91
2021/06/10 01:41:21;;;;;;;0.38;0.38;;;15.70;90.30;;;;;;5017560;28;20948;-90
2021/06/10 01:43:48;;;;;;;0.40;0.30;;;15.70;90.70;;;;;;5041158;28;20025;-90
2021/06/10 01:46:15;;;;;;;0.15;0.15;;;15.60;90.90;;;;;;5039436;28;20039;-91
2021/06/10 01:48:45;;;;;;;0.10;0.10;;;15.60;91.20;;;;;;5031221;28;20517;-90
2021/06/10 01:51:13;;;;;;;0.13;0.13;;;15.60;91.30;;;;;;5030446;28;20449;-90
2021/06/10 01:53:41;;;;;;;0.65;0.22;;;15.50;91.30;;;;;;5031593;28;20108;-90
2021/06/10 01:56:09;;;;;;;0.20;0.20;;;15.80;91.20;;;;;;5044728;28;20037;-90
2021/06/10 01:58:37;;;;;;;0.60;0.60;;;15.70;91.10;;;;;;5027112;28;20030;-90
2021/06/10 02:01:04;;;;;;;0.30;0.30;;;15.60;91.40;;;;;;5034546;28;20549;-90
2021/06/10 02:03:32;;;;;;;4.95;0.45;;;15.60;91.30;;;;;;5023260;28;20076;-90
2021/06/10 02:05:59;;;;;;;0.20;0.20;;;15.60;91.50;;;;;;5029239;28;20036;-90
2021/06/10 02:08:25;;;;;;;0.10;0.10;;;15.50;92.00;;;;;;5028842;28;20455;-90
2021/06/10 02:10:58;;;;;;;0.35;0.35;;;15.30;92.40;;;;;;5045574;28;20032;-90
2021/06/10 02:13:29;;;;;;;0.25;0.25;;;15.20;93.00;;;;;;5040789;28;20038;-90
2021/06/10 02:15:58;;;;;;;0.20;0.20;;;15.10;93.70;;;;;;5030912;28;20109;-89
2021/06/10 02:18:24;;;;;;;0.40;0.25;;;15.20;93.80;;;;;;5037280;28;20060;-89
2021/06/10 02:20:50;;;;;;;0.20;0.20;;;15.00;94.20;;;;;;5042204;28;20387;-90
2021/06/10 02:23:16;;;;;;;0.30;0.30;;;15.10;94.50;;;;;;5045163;28;20063;-90
2021/06/10 02:25:41;;;;;;;0.60;0.47;;;15.00;95.10;;;;;;5045638;28;20025;-91
2021/06/10 02:28:07;;;;;;;0.40;0.40;;;15.00;95.00;;;;;;5045202;28;20032;-90
2021/06/10 02:30:34;;;;;;;0.23;0.23;;;15.10;94.80;;;;;;5008842;28;20061;-90
2021/06/10 02:33:00;;;;;;;0.20;0.20;;;15.00;95.00;;;;;;5026231;28;20032;-90
2021/06/10 02:35:27;;;;;;;0.52;0.35;;;14.90;95.70;;;;;;5038398;28;20030;-90
2021/06/10 02:37:58;;;;;;;0.45;0.40;;;14.80;96.20;;;;;;5029390;28;20483;-89
2021/06/10 02:40:40;;;;;;;0.10;0.10;;;14.70;96.70;;;;;;5044094;28;20556;-90
2021/06/10 02:43:07;;;;;;;0.10;0.10;;;14.70;97.00;;;;;;5027773;28;20520;-90
2021/06/10 02:45:34;;;;;;;0.30;0.30;;;14.70;96.90;;;;;;5029121;28;20033;-90
2021/06/10 02:48:02;;;;;;;0.20;0.20;;;14.70;97.30;;;;;;5027892;28;20057;-90
2021/06/10 02:50:30;;;;;;;0.25;0.25;;;14.60;98.70;;;;;;5028201;28;20033;-90
2021/06/10 02:52:58;;;;;;;0.40;0.40;;;14.60;99.90;;;;;;5027692;28;20030;-89
2021/06/10 02:55:27;;;;;;;7.65;1.65;;;14.50;99.90;;;;;;5028530;28;20033;-88
2021/06/10 02:57:55;;;;;;;0.40;0.40;;;14.60;98.80;;;;;;5027531;28;20027;-89
2021/06/10 03:00:28;;;;;;;0.45;0.45;;;14.70;99.70;;;;;;5016859;28;20041;-89
2021/06/10 03:02:54;;;;;;;0.13;0.13;;;14.60;99.00;;;;;;5034936;28;20049;-89
2021/06/10 03:05:24;;;;;;;0.82;0.30;;;14.50;99.90;;;;;;5020276;28;20026;-89
2021/06/10 03:07:51;;;;;;;0.25;0.25;;;14.50;99.20;;;;;;5009378;28;20113;-90
2021/06/10 03:10:20;;;;;;;0.20;0.20;;;14.80;99.10;;;;;;5009404;28;20105;-90
2021/06/10 03:12:47;;;;;;;6.30;0.52;;;14.70;99.90;;;;;;5024415;28;20060;-89
2021/06/10 03:15:14;;;;;;;0.63;0.60;;;14.60;98.90;;;;;;5037137;28;20475;-89
2021/06/10 03:17:41;;;;;;;0.57;0.57;;;14.80;98.80;;;;;;5041664;28;19913;-90
2021/06/10 03:20:10;;;;;;;0.30;0.30;;;14.70;99.40;;;;;;5043546;28;20483;-90
2021/06/10 03:22:36;;;;;;;0.75;0.75;;;14.60;99.70;;;;;;5032532;28;20097;-90
2021/06/10 03:25:05;;;;;;;0.20;0.20;;;14.70;99.50;;;;;;5025921;28;20389;-89
2021/06/10 03:27:32;;;;;;;0.10;0.10;;;14.70;99.90;;;;;;5029869;28;20037;-89
2021/06/10 03:29:58;;;;;;;;;;;14.60;99.90;;;;;;5031974;28;20044;-89
2021/06/10 03:32:28;;;;;;;0.25;0.25;;;14.50;99.90;;;;;;5030628;28;20806;-89
2021/06/10 03:34:56;;;;;;;0.30;0.30;;;14.40;99.90;;;;;;5028410;28;20030;-89
2021/06/10 03:37:23;;;;;;;0.10;0.10;;;14.30;99.90;;;;;;5047067;28;20075;-89
2021/06/10 03:39:50;;;;;;;0.75;0.75;;;14.40;99.90;;;;;;5029483;28;20026;-90
2021/06/10 03:42:21;;;;;;;0.30;0.30;;;14.30;99.90;;;;;;5027926;28;20053;-88
2021/06/10 03:44:48;;;;;;;0.68;0.68;;;14.30;99.90;;;;;;5030916;28;20037;-90
2021/06/10 03:47:15;;;;;;;0.35;0.35;;;14.20;99.90;;;;;;5032094;28;20028;-90
2021/06/10 03:49:42;;;;;;;0.20;0.20;;;14.30;99.90;;;;;;5015516;28;20033;-90
2021/06/10 03:52:08;;;;;;;0.17;0.17;;;14.40;99.90;;;;;;5032084;28;20025;-90
2021/06/10 03:54:33;;;;;;;0.10;0.10;;;14.20;99.90;;;;;;5030161;28;20140;-90
2021/06/10 03:56:59;;;;;;;0.20;0.20;;;14.00;99.90;;;;;;5047564;28;20029;-90
2021/06/10 03:59:25;;;;;;;0.60;0.50;;;13.90;99.90;;;;;;5047615;28;20040;-90
2021/06/10 04:01:51;;;;;;;2.67;0.50;;;14.00;99.90;;;;;;5030549;28;20053;-90
2021/06/10 04:04:19;;;;;;;0.27;0.27;;;14.00;99.90;;;;;;5029152;28;20156;-90
2021/06/10 04:06:47;;;;;;;0.30;0.30;;;14.00;99.90;;;;;;5033120;28;20041;-90
2021/06/10 04:09:12;;;;;;;0.28;0.28;;;13.80;99.90;;;;;;5048439;28;20072;-91
2021/06/10 04:11:39;;;;;;;0.28;0.28;;;13.90;99.90;;;;;;5048358;28;20502;-91
2021/06/10 04:14:05;;;;;;;0.43;0.43;;;13.90;99.90;;;;;;5040636;28;20116;-91
2021/06/10 04:16:31;;;;;;;0.57;0.32;;;14.00;99.90;;;;;;5034370;28;20029;-91
2021/06/10 04:18:57;;;;;;;0.88;0.88;;;14.10;99.90;;;;;;5031108;28;20021;-89
2021/06/10 04:21:24;;;;;;;0.40;0.40;;;14.40;99.90;;;;;;5031586;28;20075;-89
2021/06/10 04:23:50;;;;;;;0.10;0.10;;;14.90;99.90;;;;;;5030485;28;20025;-89
2021/06/10 04:26:16;;;;;;;0.22;0.22;;;15.20;99.90;;;;;;5047120;28;20037;-90
2021/06/10 04:28:47;;;;;;;0.57;0.57;;;15.50;99.90;;;;;;5030800;28;20032;-90
2021/06/10 04:31:17;;;;;;;0.20;0.20;;;15.80;99.90;;;;;;5029430;28;20034;-89
2021/06/10 04:33:43;;;;;;;0.40;0.40;;;16.00;99.90;;;;;;5009239;28;20034;-88
2021/06/10 04:36:10;;;;;;;0.35;0.35;;;16.30;99.80;;;;;;5027903;28;20099;-89
2021/06/10 04:38:36;;;;;;;;;;;16.30;99.40;;;;;;5031266;28;20499;-87
2021/06/10 04:41:02;;;;;;;0.80;0.45;;;15.80;99.90;;;;;;5030978;28;19909;-85
2021/06/10 04:43:28;;;;;;;0.30;0.30;;;15.80;99.70;;;;;;5029465;28;20032;-88
2021/06/10 04:45:56;;;;;;;0.30;0.30;;;15.80;99.90;;;;;;5031361;28;20120;-86
2021/06/10 04:48:22;;;;;;;0.52;0.52;;;16.80;98.80;;;;;;5046130;28;20037;-88
2021/06/10 04:50:48;;;;;;;0.20;0.10;;;17.30;97.40;;;;;;5044197;28;20047;-88
2021/06/10 04:53:14;;;;;;;0.10;0.10;;;17.50;97.00;;;;;;5046163;28;20128;-88
2021/06/10 04:55:40;;;;;;;0.10;0.10;;;17.90;96.40;;;;;;5030818;28;20038;-87
2021/06/10 04:58:06;;;;;;;0.10;0.10;;;18.60;94.80;;;;;;5030879;28;20035;-88
2021/06/10 05:00:35;;;;;;;0.20;0.20;;;18.40;94.90;;;;;;5044111;28;20041;-92
2021/06/10 05:03:02;;;;;;;0.68;0.55;;;18.60;94.10;;;;;;5020107;28;20100;-89
2021/06/10 05:05:30;;;;;;;0.28;0.28;;;19.10;93.50;;;;;;5026013;28;20037;-89
2021/06/10 05:07:57;;;;;;;0.52;0.40;;;19.10;92.10;;;;;;5016662;28;20034;-91
2021/06/10 05:10:27;;;;;;;0.22;0.22;;;19.10;92.70;;;;;;5021683;28;20052;-89
2021/06/10 05:12:54;;;;;;;0.08;0.08;;;19.30;93.10;;;;;;5038019;28;20025;-89
2021/06/10 05:15:20;;;;;;;0.55;0.45;;;19.20;92.70;;;;;;5017016;28;20025;-89
2021/06/10 05:17:47;;;;;;;0.43;0.20;;;19.30;91.80;;;;;;5025798;28;20036;-89
2021/06/10 05:20:13;;;;;;;0.30;0.30;;;19.50;91.90;;;;;;5038893;28;20265;-89
2021/06/10 05:22:39;;;;;;;;;;;19.80;91.40;;;;;;5021933;28;20379;-89
2021/06/10 05:25:06;;;;;;;0.52;0.20;;;20.20;91.20;;;;;;5022252;28;19932;-89
2021/06/10 05:27:33;;;;;;;0.03;0.03;;;20.00;90.60;;;;;;5022460;28;20045;-90
2021/06/10 05:30:00;;;;;;;0.13;0.10;;;19.80;90.00;;;;;;5019223;28;20026;-90
2021/06/10 05:32:26;;;;;;;0.10;0.10;;;20.00;89.90;;;;;;5019127;28;20029;-89
2021/06/10 05:34:51;;;;;;;0.25;0.15;;;20.40;87.20;;;;;;5016155;28;20044;-90
2021/06/10 05:37:17;;;;;;;0.57;0.50;;;20.50;89.20;;;;;;5039828;28;20029;-88
2021/06/10 05:39:43;;;;;;;0.63;0.20;;;20.80;87.30;;;;;;5027846;28;20022;-89
2021/06/10 05:42:10;;;;;;;0.13;0.13;;;20.50;88.00;;;;;;5025572;28;20501;-88
2021/06/10 05:44:36;;;;;;;0.17;0.17;;;21.00;86.10;;;;;;5026010;28;20053;-90
2021/06/10 05:47:02;;;;;;;0.17;0.17;;;20.50;85.60;;;;;;5028801;28;20025;-89
2021/06/10 05:49:28;;;;;;;0.55;0.25;;;20.60;88.00;;;;;;5028842;28;20383;-88
2021/06/10 05:51:53;;;;;;;0.40;0.40;;;20.20;88.10;;;;;;5043827;28;20037;-88
2021/06/10 05:54:19;;;;;;;0.67;0.50;;;20.60;88.70;;;;;;5029743;28;20041;-86
2021/06/10 05:56:45;;;;;;;0.10;0.10;;;20.60;88.00;;;;;;5029711;28;20288;-85
2021/06/10 05:59:11;;;;;;;4.13;0.30;;;20.70;86.90;;;;;;5029215;28;20280;-85
2021/06/10 06:01:36;;;;;;;0.10;0.10;;;20.90;86.00;;;;;;5028399;28;20514;-86
2021/06/10 06:04:02;;;;;;;0.30;0.20;;;21.10;86.00;;;;;;5009381;28;20127;-86
2021/06/10 06:06:28;;;;;;;0.20;0.20;;;21.00;85.40;;;;;;5025135;28;20136;-86
2021/06/10 06:08:54;;;;;;;0.30;0.30;;;21.30;93.20;;;;;;5009657;28;20033;-86
2021/06/10 06:11:20;;;;;;;0.38;0.38;;;21.40;84.10;;;;;;5009422;28;20030;-86
2021/06/10 06:13:54;;;;;;;0.20;0.20;;;21.30;84.80;;;;;;5034646;28;20067;-86
2021/06/10 06:16:21;;;;;;;0.10;0.10;;;21.80;82.20;;;;;;5029295;28;20072;-86
2021/06/10 06:18:48;;;;;;;0.32;0.32;;;21.70;82.20;;;;;;5028835;28;20028;-86
2021/06/10 06:21:14;;;;;;;0.60;0.60;;;21.70;82.00;;;;;;5028160;28;20097;-87
2021/06/10 06:23:43;;;;;;;1.02;0.63;;;22.00;80.90;;;;;;5044376;28;20032;-87
2021/06/10 06:26:10;;;;;;;0.20;0.20;;;22.20;80.30;;;;;;5011365;28;20057;-87
2021/06/10 06:28:37;;;;;;;1.30;0.30;;;22.20;81.20;;;;;;5029302;28;20920;-87
2021/06/10 06:31:03;;;;;;;0.20;0.20;;;22.50;78.00;;;;;;5027474;28;20035;-87
2021/06/10 06:33:29;;;;;;;0.40;0.40;;;22.80;76.50;;;;;;5029158;28;20030;-88
2021/06/10 06:35:55;;;;;;;0.32;0.32;;;22.60;78.30;;;;;;5044173;28;20064;-87
2021/06/10 06:38:21;;;;;;;;;;;22.80;78.60;;;;;;5041987;28;20554;-87
2021/06/10 06:40:48;;;;;;;;;;;23.00;77.20;;;;;;5027777;28;19909;-87
2021/06/10 06:43:14;;;;;;;0.43;0.10;;;23.10;75.10;;;;;;5025553;28;19913;-86
2021/06/10 06:45:40;;;;;;;0.10;0.10;;;23.50;74.00;;;;;;5027309;28;20029;-87
2021/06/10 06:48:06;;;;;;;1.27;0.32;;;23.50;72.80;;;;;;5043836;28;20661;-87
2021/06/10 06:50:32;;;;;;;0.20;0.20;;;23.70;74.40;;;;;;5028683;28;20486;-87
2021/06/10 06:52:58;;;;;;;0.20;0.20;;;24.20;82.40;;;;;;5029311;28;20085;-87
2021/06/10 06:55:24;;;;;;;0.20;0.20;;;24.80;69.30;;;;;;5027574;28;20696;-88
2021/06/10 06:57:49;;;;;;;0.43;0.30;;;24.90;66.70;;;;;;5033146;28;20021;-88
2021/06/10 07:00:16;;;;;;;0.10;0.10;;;24.90;65.00;;;;;;5030412;28;20025;-87
2021/06/10 07:02:42;;;;;;;0.10;0.03;;;25.70;64.60;;;;;;5046053;28;20107;-88
2021/06/10 07:05:09;;;;;;;0.30;0.30;;;25.60;63.20;;;;;;5028181;28;20021;-87
2021/06/10 07:07:35;;;;;;;0.40;0.35;;;25.60;64.70;;;;;;5051760;28;20034;-86
2021/06/10 07:10:01;;;;;;;0.22;0.20;;;26.60;59.10;;;;;;5032494;28;20056;-86
2021/06/10 07:12:27;;;;;;;0.38;0.20;;;26.90;57.50;;;;;;5032592;28;20091;-86
2021/06/10 07:14:52;;;;;;;;;;;27.60;70.40;;;;;;5033162;28;20033;-86
2021/06/10 07:17:18;;;;;;;0.10;0.10;;;27.80;56.00;;;;;;5032294;28;20416;-86
2021/06/10 07:19:47;;;;;;;0.08;0.00;;;27.10;54.30;;;;;;5032566;28;20025;-86
2021/06/10 07:22:12;;;;;;;0.22;0.22;;;28.00;55.90;;;;;;5032502;28;20449;-86
2021/06/10 07:24:38;;;;;;;;;;;28.00;50.30;;;;;;5032857;28;20045;-86
2021/06/10 07:27:05;;;;;;;0.28;0.28;;;28.30;53.50;;;;;;5032697;28;19905;-86
2021/06/10 07:29:30;;;;;;;0.15;0.15;;;28.00;53.10;;;;;;5032111;28;20030;-86
2021/06/10 07:31:56;;;;;;;;;;;29.10;50.70;;;;;;5016639;28;20522;-86
2021/06/10 07:34:22;;;;;;;37.97;0.98;;;29.30;50.40;;;;;;5012503;28;19906;-86
2021/06/10 07:36:48;;;;;;;0.35;0.20;;;29.90;46.70;;;;;;5034372;28;20494;-86
2021/06/10 07:39:13;;;;;;;0.43;0.40;;;30.10;45.00;;;;;;5032325;28;20029;-86
2021/06/10 07:41:39;;;;;;;0.25;0.25;;;29.70;42.00;;;;;;5032272;28;20060;-86
2021/06/10 07:44:05;;;;;;;0.10;0.10;;;30.30;40.00;;;;;;5032349;28;20021;-86
2021/06/10 07:46:31;;;;;;;0.03;0.03;;;31.10;41.40;;;;;;5032261;28;20499;-86
2021/06/10 07:48:58;;;;;;;0.15;0.15;;;30.60;40.50;;;;;;5032262;28;20026;-86
2021/06/10 07:51:24;;;;;;;0.17;0.17;;;29.10;40.10;;;;;;5032422;28;20144;-86
2021/06/10 07:53:50;;;;;;;0.10;0.10;;;31.60;36.90;;;;;;5032191;28;20148;-86
2021/06/10 07:56:16;;;;;;;0.22;0.22;;;31.30;36.60;;;;;;5032172;28;20033;-86
2021/06/10 07:58:41;;;;;;;0.30;0.30;;;31.20;40.20;;;;;;5031803;28;20018;-87
2021/06/10 08:01:07;;;;;;;0.00;0.00;;;32.10;34.60;;;;;;5035848;28;20506;-86
2021/06/10 08:03:33;;;;;;;0.10;0.10;;;31.90;34.00;;;;;;5032803;28;20022;-86
2021/06/10 08:06:00;;;;;;;0.10;0.10;;;32.80;33.20;;;;;;5031982;28;20025;-86
2021/06/10 08:08:26;;;;;;;0.10;0.10;;;32.00;30.60;;;;;;5030484;28;20029;-86
2021/06/10 08:10:53;;;;;;;0.28;0.10;;;32.50;33.20;;;;;;5031659;28;20056;-86
2021/06/10 08:13:22;;;;;;;0.13;0.00;;;33.50;26.30;;;;;;5031330;28;20065;-86
2021/06/10 08:15:50;;;;;;;0.10;0.03;;;31.60;28.60;;;;;;5031086;28;20087;-86
2021/06/10 08:18:17;;;;;;;0.00;0.00;;;32.00;30.20;;;;;;5013810;28;20052;-86
2021/06/10 08:20:43;;;;;;;0.10;0.10;;;33.70;26.60;;;;;;5029919;28;20495;-86
2021/06/10 08:23:09;;;;;;;0.20;0.20;;;34.90;27.20;;;;;;5031542;28;20032;-86
2021/06/10 08:25:35;;;;;;;0.00;0.00;;;35.10;24.10;;;;;;5030978;28;20450;-86
2021/06/10 08:28:04;;;;;;;0.10;0.10;;;34.80;20.60;;;;;;5031258;28;20021;-86
2021/06/10 08:30:31;;;;;;;0.20;0.20;;;34.80;23.60;;;;;;5031066;28;20045;-86
2021/06/10 08:32:58;;;;;;;1.20;0.52;;;33.70;26.10;;;;;;5029592;28;20104;-86
2021/06/10 08:35:24;;;;;;;0.28;0.28;;;34.20;25.50;;;;;;5029914;28;20028;-86
2021/06/10 08:37:50;;;;;;;0.10;0.10;;;34.00;20.00;;;;;;5045992;28;20032;-86
2021/06/10 08:40:16;;;;;;;0.08;0.05;;;34.50;18.80;;;;;;5050970;28;20064;-86
2021/06/10 08:42:43;;;;;;;0.30;0.20;;;33.70;20.40;;;;;;5050821;28;20634;-86
2021/06/10 08:45:17;;;;;;;0.10;0.10;;;34.60;21.00;;;;;;5050969;28;20025;-86
2021/06/10 08:47:47;;;;;;;0.10;0.10;;;34.10;23.00;;;;;;5051010;28;20029;-87
2021/06/10 08:50:18;;;;;;;0.00;0.00;;;35.30;21.00;;;;;;5033126;28;20115;-86
2021/06/10 08:52:44;;;;;;;0.30;0.30;;;36.20;19.60;;;;;;5033056;28;20446;-86
2021/06/10 08:55:12;;;;;;;0.20;0.20;;;34.40;15.20;;;;;;5051028;28;20021;-87
2021/06/10 08:57:38;;;;;;;0.17;0.17;;;35.30;15.30;;;;;;5051130;28;20055;-86
2021/06/10 09:00:08;;;;;;;0.57;0.43;;;37.80;9.10;;;;;;5050667;28;20035;-87
2021/06/10 09:02:34;;;;;;;0.40;0.40;;;36.80;10.50;;;;;;5029740;28;20127;-86
2021/06/10 09:05:04;;;;;;;0.10;0.10;;;35.90;14.30;;;;;;5011130;28;20483;-86
2021/06/10 09:07:40;;;;;;;0.00;0.00;;;35.70;14.40;;;;;;5011485;28;20084;-86
2021/06/10 09:10:09;;;;;;;0.17;0.17;;;34.60;12.70;;;;;;5009861;28;20410;-87
2021/06/10 09:12:57;;;;;;;0.20;0.20;;;34.10;17.40;;;;;;4993435;28;20124;-86
2021/06/10 09:15:26;;;;;;;0.10;0.10;;;35.10;17.50;;;;;;5011054;28;20022;-87
2021/06/10 09:17:54;;;;;;;0.20;0.20;;;36.90;11.00;;;;;;5010835;28;20034;-87
2021/06/10 09:20:20;;;;;;;0.00;0.00;;;34.50;12.60;;;;;;4992626;28;20037;-87
2021/06/10 09:23:07;;;;;;;0.52;0.40;;;34.90;22.70;;;;;;5010559;28;20056;-87
2021/06/10 09:25:34;;;;;;;0.35;0.32;;;34.30;13.90;;;;;;5010936;28;20022;-87
2021/06/10 09:28:05;;;;;;;0.25;0.25;;;32.60;16.00;;;;;;5010443;28;20125;-86
2021/06/10 09:30:40;;;;;;;0.30;0.30;;;32.10;16.90;;;;;;5010568;28;20032;-88
2021/06/10 09:33:16;;;;;;;0.10;0.10;;;34.30;16.10;;;;;;5010406;28;20032;-86
2021/06/10 09:35:43;;;;;;;5.38;0.63;;;33.30;27.10;;;;;;5010321;28;20026;-86
2021/06/10 09:38:17;;;;;;;0.03;0.03;;;33.10;15.40;;;;;;5045436;28;20029;-86
2021/06/10 09:40:44;;;;;;;0.55;0.40;;;32.70;14.90;;;;;;5049955;28;20045;-86
2021/06/10 09:43:10;;;;;;;0.20;0.20;;;31.80;16.80;;;;;;5049686;28;20522;-86
2021/06/10 09:45:37;;;;;;;0.10;0.10;;;33.90;15.40;;;;;;5050082;28;20037;-86
2021/06/10 09:48:05;;;;;;;1.17;0.20;;;33.60;11.30;;;;;;5049901;28;20517;-86
2021/06/10 09:50:43;;;;;;;0.25;0.25;;;33.30;14.10;;;;;;5049980;28;20021;-86
2021/06/10 09:53:14;;;;;;;0.20;0.10;;;32.70;17.30;;;;;;5049920;28;20024;-86
2021/06/10 09:55:52;;;;;;;0.30;0.30;;;33.40;12.80;;;;;;5049722;28;20036;-86
2021/06/10 09:58:25;;;;;;;0.30;0.30;;;32.70;13.90;;;;;;5049636;28;20020;-85
2021/06/10 10:00:54;;;;;;;0.38;0.38;;;33.40;14.30;;;;;;5049698;28;20025;-86
2021/06/10 10:03:26;;;;;;;0.17;0.17;;;33.40;14.50;;;;;;5032352;28;20108;-85
2021/06/10 10:05:53;;;;;;;1.00;0.43;;;33.70;15.90;;;;;;5029643;28;20021;-86
2021/06/10 10:08:19;;;;;;;0.00;0.00;;;34.50;7.70;;;;;;5029641;28;20071;-86
2021/06/10 10:10:45;;;;;;;0.05;0.05;;;36.30;8.20;;;;;;5029712;28;20511;-85
2021/06/10 10:13:15;;;;;;;0.10;0.10;;;39.60;1.00;;;;;;5029125;28;20562;-86
2021/06/10 10:15:41;;;;;;;0.73;0.52;;;40.20;1.00;;;;;;5029566;28;20030;-86
2021/06/10 10:18:07;;;;;;;;;;;39.40;2.80;;;;;;5029999;28;20025;-86
2021/06/10 10:20:33;;;;;;;0.10;0.10;;;37.60;4.40;;;;;;5029331;28;20290;-85
2021/06/10 10:22:59;;;;;;;0.52;0.52;;;37.70;1.00;;;;;;5029463;28;20099;-85
2021/06/10 10:25:26;;;;;;;0.20;0.17;;;38.60;1.00;;;;;;5011352;28;20029;-85
2021/06/10 10:27:52;;;;;;;0.10;0.10;;;40.30;1.00;;;;;;5029590;28;20032;-85
2021/06/10 10:30:23;;;;;;;0.15;0.15;;;39.00;1.00;;;;;;5028398;28;20026;-86
2021/06/10 10:32:49;;;;;;;0.25;0.25;;;38.60;1.00;;;;;;5029471;28;20025;-86
2021/06/10 10:35:30;;;;;;;0.28;0.20;;;38.70;1.00;;;;;;5029194;28;20600;-86
2021/06/10 10:37:56;;;;;;;0.03;0.03;;;36.90;2.70;;;;;;5043618;28;20108;-86
2021/06/10 10:40:24;;;;;;;0.20;0.20;;;38.30;1.00;;;;;;5030984;28;20112;-86
2021/06/10 10:42:52;;;;;;;0.00;0.00;;;37.70;1.00;;;;;;5049306;28;20032;-86
2021/06/10 10:45:29;;;;;;;0.17;0.10;;;37.40;1.00;;;;;;5048915;28;20021;-85
2021/06/10 10:50:36;;;;;;;0.15;0.10;;;33.90;9.70;;;;;;5049067;28;20039;-86
2021/06/10 10:53:03;;;;;;;0.30;0.30;;;37.30;2.30;;;;;;5049189;28;20544;-86
2021/06/10 10:55:30;;;;;;;0.22;0.22;;;35.50;1.00;;;;;;5048715;28;20021;-85
2021/06/10 10:58:18;;;;;;;0.22;0.13;;;38.20;1.00;;;;;;5049238;28;20517;-85
2021/06/10 11:00:47;;;;;;;0.10;0.10;;;38.00;1.00;;;;;;5048856;28;20040;-85
2021/06/10 11:03:40;;;;;;;0.10;0.10;;;38.70;1.00;;;;;;5033082;28;20387;-85
2021/06/10 11:06:21;;;;;;;0.00;0.00;;;37.80;1.00;;;;;;5017421;28;20038;-85
2021/06/10 11:09:12;;;;;;;0.00;0.00;;;36.40;6.00;;;;;;5027826;28;20029;-85
2021/06/10 11:11:58;;;;;;;0.22;0.15;;;39.90;1.00;;;;;;5029093;28;20049;-85
2021/06/10 11:14:42;;;;;;;0.28;0.28;;;39.10;1.00;;;;;;5028844;28;20036;-85
2021/06/10 11:17:25;;;;;;;0.20;0.20;;;31.60;6.80;;;;;;5029038;28;20556;-85
2021/06/10 11:19:51;;;;;;;0.10;0.10;;;29.50;10.80;;;;;;5029107;28;20053;-85
2021/06/10 11:22:33;;;;;;;0.10;0.10;;;30.00;10.40;;;;;;5027932;28;20057;-85
2021/06/10 11:24:59;;;;;;;0.20;0.20;;;34.90;7.50;;;;;;5028694;28;20025;-85
2021/06/10 11:27:51;;;;;;;;;;;37.50;3.10;;;;;;5029266;28;20033;-85
2021/06/10 11:30:29;;;;;;;0.40;0.13;;;34.80;6.80;;;;;;5024452;28;19905;-85
2021/06/10 11:33:03;;;;;;;0.13;0.13;;;30.40;9.80;;;;;;5029127;28;20033;-85
2021/06/10 11:35:47;;;;;;;0.10;0.10;;;30.00;9.90;;;;;;5028734;28;20561;-85
2021/06/10 11:38:21;;;;;;;0.20;0.20;;;30.30;11.10;;;;;;5029314;28;20713;-85
2021/06/10 11:41:03;;;;;;;0.10;0.10;;;29.20;11.60;;;;;;5028738;28;20380;-85
2021/06/10 11:43:31;;;;;;;0.08;0.08;;;28.00;15.30;;;;;;5032281;28;20056;-85
2021/06/10 11:46:08;;;;;;;0.15;0.15;;;27.70;17.30;;;;;;5032698;28;20124;-85
2021/06/10 11:48:46;;;;;;;0.10;0.10;;;27.30;17.20;;;;;;5032433;28;20025;-85
2021/06/10 11:51:21;;;;;;;13.05;0.65;;;27.70;17.40;;;;;;5014711;28;20556;-86
2021/06/10 11:53:48;;;;;;;0.00;0.00;;;27.40;17.60;;;;;;5014259;28;20041;-86
2021/06/10 11:56:14;;;;;;;0.10;0.10;;;27.30;18.30;;;;;;5032316;28;20056;-85
2021/06/10 11:58:40;;;;;;;0.40;0.20;;;27.50;18.40;;;;;;5031813;28;20060;-86
2021/06/10 12:01:11;;;;;;;0.10;0.10;;;27.40;19.20;;;;;;5031899;28;20044;-86
2021/06/10 12:03:39;;;;;;;0.10;0.10;;;27.20;19.40;;;;;;5031806;28;20038;-85
2021/06/10 12:06:08;;;;;;;0.10;0.10;;;27.30;19.50;;;;;;5032012;28;20081;-86
2021/06/10 12:08:36;;;;;;;0.20;0.20;;;27.30;19.50;;;;;;5031995;28;20029;-86
2021/06/10 12:11:05;;;;;;;0.30;0.30;;;27.60;19.00;;;;;;5031860;28;20033;-85
2021/06/10 12:13:38;;;;;;;0.30;0.30;;;27.10;19.10;;;;;;5031994;28;20063;-85
2021/06/10 12:16:09;;;;;;;0.30;0.30;;;26.80;19.90;;;;;;5031856;28;20030;-86
2021/06/10 12:18:36;;;;;;;0.00;0.00;;;26.60;20.30;;;;;;5031734;28;20068;-86
2021/06/10 12:21:11;;;;;;;0.20;0.20;;;26.40;21.40;;;;;;5031856;28;20022;-85
2021/06/10 12:23:41;;;;;;;0.20;0.20;;;26.70;20.20;;;;;;5031646;28;20029;-85
2021/06/10 12:26:09;;;;;;;0.15;0.15;;;27.20;20.10;;;;;;5030615;28;20037;-85
2021/06/10 12:28:44;;;;;;;0.22;0.22;;;26.90;20.50;;;;;;5032037;28;20025;-86
2021/06/10 12:31:16;;;;;;;0.10;0.10;;;27.00;20.30;;;;;;5031790;28;20043;-85
2021/06/10 12:33:48;;;;;;;0.10;0.10;;;27.20;19.40;;;;;;5047027;28;20483;-86
2021/06/10 12:36:24;;;;;;;0.10;0.10;;;27.20;19.60;;;;;;5030340;28;20026;-85
2021/06/10 12:38:54;;;;;;;0.00;0.00;;;27.70;19.30;;;;;;5031384;28;20053;-85
2021/06/10 12:41:34;;;;;;;0.30;0.20;;;27.80;18.00;;;;;;5031710;28;20658;-86
2021/06/10 12:44:11;;;;;;;0.30;0.30;;;28.10;18.70;;;;;;5031297;28;20026;-86
2021/06/10 12:46:51;;;;;;;0.13;0.13;;;28.00;20.50;;;;;;5030029;28;20120;-86
2021/06/10 12:49:19;;;;;;;0.10;0.05;;;27.90;28.10;;;;;;5031339;28;20029;-86
2021/06/10 12:51:48;;;;;;;0.25;0.17;;;27.60;20.10;;;;;;5028741;28;20033;-85
2021/06/10 12:54:15;;;;;;;0.10;0.10;;;27.80;20.00;;;;;;5010635;28;20022;-86
2021/06/10 12:56:44;;;;;;;0.30;0.28;;;27.70;19.30;;;;;;5011446;28;20030;-86
2021/06/10 12:59:23;;;;;;;0.15;0.15;;;27.80;19.20;;;;;;5009826;28;20061;-86
2021/06/10 13:02:07;;;;;;;0.30;0.30;;;28.00;19.30;;;;;;5026254;28;20050;-85